sensor_id;sensor_type;location;lat;lon;timestamp;P1;durP1;ratioP1;P2;durP2;ratioP2
19919;SDS011;10122;50.074;19.920;2023-07-29T00:01:51;3.72;;;3.53;;
19919;SDS011;10122;50.074;19.920;2023-07-29T00:04:19;3.72;;;3.53;;
19919;SDS011;10122;50.074;19.920;2023-07-29T00:06:45;4.00;;;3.80;;
19919;SDS011;10122;50.074;19.920;2023-07-29T00:09:11;4.00;;;3.80;;
19919;SDS011;10122;50.074;19.920;2023-07-29T00:11:37;3.60;;;3.40;;
19919;SDS011;10122;50.074;19.920;2023-07-29T00:14:03;3.50;;;3.30;;
19919;SDS011;10122;50.074;19.920;2023-07-29T00:16:29;3.90;;;3.70;;
19919;SDS011;10122;50.074;19.920;2023-07-29T00:18:54;3.72;;;3.53;;
19919;SDS011;10122;50.074;19.920;2023-07-29T00:21:20;3.80;;;3.60;;
19919;SDS011;10122;50.074;19.920;2023-07-29T00:23:46;4.10;;;3.90;;
19919;SDS011;10122;50.074;19.920;2023-07-29T00:26:12;4.25;;;3.90;;
19919;SDS011;10122;50.074;19.920;2023-07-29T00:28:37;3.80;;;3.60;;
19919;SDS011;10122;50.074;19.920;2023-07-29T00:31:03;4.10;;;3.90;;
19919;SDS011;10122;50.074;19.920;2023-07-29T00:33:29;4.07;;;3.55;;
19919;SDS011;10122;50.074;19.920;2023-07-29T00:35:54;3.88;;;3.67;;
19919;SDS011;10122;50.074;19.920;2023-07-29T00:38:20;4.43;;;4.13;;
19919;SDS011;10122;50.074;19.920;2023-07-29T00:40:46;3.92;;;3.72;;
19919;SDS011;10122;50.074;19.920;2023-07-29T00:43:11;4.10;;;3.80;;
19919;SDS011;10122;50.074;19.920;2023-07-29T00:45:37;3.90;;;3.70;;
19919;SDS011;10122;50.074;19.920;2023-07-29T00:48:04;3.85;;;3.65;;
19919;SDS011;10122;50.074;19.920;2023-07-29T00:50:30;11.60;;;4.25;;
19919;SDS011;10122;50.074;19.920;2023-07-29T00:52:57;4.32;;;4.07;;
19919;SDS011;10122;50.074;19.920;2023-07-29T00:55:23;3.88;;;3.67;;
19919;SDS011;10122;50.074;19.920;2023-07-29T00:57:49;3.83;;;3.63;;
19919;SDS011;10122;50.074;19.920;2023-07-29T01:00:19;4.20;;;3.90;;
19919;SDS011;10122;50.074;19.920;2023-07-29T01:02:45;4.50;;;4.20;;
19919;SDS011;10122;50.074;19.920;2023-07-29T01:05:12;3.92;;;3.72;;
19919;SDS011;10122;50.074;19.920;2023-07-29T01:07:41;3.85;;;3.65;;
19919;SDS011;10122;50.074;19.920;2023-07-29T01:15:47;3.97;;;3.78;;
19919;SDS011;10122;50.074;19.920;2023-07-29T01:18:22;4.45;;;4.15;;
19919;SDS011;10122;50.074;19.920;2023-07-29T01:20:53;4.00;;;3.80;;
19919;SDS011;10122;50.074;19.920;2023-07-29T01:23:33;4.75;;;4.43;;
19919;SDS011;10122;50.074;19.920;2023-07-29T01:25:59;3.97;;;3.72;;
19919;SDS011;10122;50.074;19.920;2023-07-29T01:28:26;3.92;;;3.70;;
19919;SDS011;10122;50.074;19.920;2023-07-29T01:30:55;3.97;;;3.78;;
19919;SDS011;10122;50.074;19.920;2023-07-29T01:33:27;3.88;;;3.67;;
19919;SDS011;10122;50.074;19.920;2023-07-29T01:36:11;3.92;;;3.72;;
19919;SDS011;10122;50.074;19.920;2023-07-29T01:38:41;4.05;;;3.85;;
19919;SDS011;10122;50.074;19.920;2023-07-29T01:41:08;4.20;;;4.00;;
19919;SDS011;10122;50.074;19.920;2023-07-29T01:43:34;4.22;;;3.80;;
19919;SDS011;10122;50.074;19.920;2023-07-29T01:46:07;4.05;;;3.85;;
19919;SDS011;10122;50.074;19.920;2023-07-29T01:48:37;3.80;;;3.60;;
19919;SDS011;10122;50.074;19.920;2023-07-29T01:51:03;3.70;;;3.50;;
19919;SDS011;10122;50.074;19.920;2023-07-29T01:53:29;3.72;;;3.53;;
19919;SDS011;10122;50.074;19.920;2023-07-29T01:55:55;4.05;;;3.85;;
19919;SDS011;10122;50.074;19.920;2023-07-29T01:58:22;4.05;;;3.75;;
19919;SDS011;10122;50.074;19.920;2023-07-29T02:00:47;4.10;;;3.90;;
19919;SDS011;10122;50.074;19.920;2023-07-29T02:03:13;3.90;;;3.70;;
19919;SDS011;10122;50.074;19.920;2023-07-29T02:05:39;4.35;;;4.05;;
19919;SDS011;10122;50.074;19.920;2023-07-29T02:08:05;4.25;;;3.97;;
19919;SDS011;10122;50.074;19.920;2023-07-29T02:10:31;4.07;;;3.78;;
19919;SDS011;10122;50.074;19.920;2023-07-29T02:12:56;4.10;;;3.85;;
19919;SDS011;10122;50.074;19.920;2023-07-29T02:15:22;4.05;;;3.80;;
19919;SDS011;10122;50.074;19.920;2023-07-29T02:17:49;3.90;;;3.70;;
19919;SDS011;10122;50.074;19.920;2023-07-29T02:20:16;3.90;;;3.70;;
19919;SDS011;10122;50.074;19.920;2023-07-29T02:22:41;4.32;;;4.13;;
19919;SDS011;10122;50.074;19.920;2023-07-29T02:25:07;4.03;;;3.83;;
19919;SDS011;10122;50.074;19.920;2023-07-29T02:27:33;4.28;;;4.07;;
19919;SDS011;10122;50.074;19.920;2023-07-29T02:29:59;3.85;;;3.65;;
19919;SDS011;10122;50.074;19.920;2023-07-29T02:32:24;4.13;;;3.92;;
19919;SDS011;10122;50.074;19.920;2023-07-29T02:34:50;3.85;;;3.65;;
19919;SDS011;10122;50.074;19.920;2023-07-29T02:37:16;4.03;;;3.72;;
19919;SDS011;10122;50.074;19.920;2023-07-29T02:39:42;3.75;;;3.55;;
19919;SDS011;10122;50.074;19.920;2023-07-29T02:42:07;4.05;;;3.83;;
19919;SDS011;10122;50.074;19.920;2023-07-29T02:44:33;4.05;;;3.85;;
19919;SDS011;10122;50.074;19.920;2023-07-29T02:46:59;4.32;;;4.03;;
19919;SDS011;10122;50.074;19.920;2023-07-29T02:49:24;4.15;;;3.85;;
19919;SDS011;10122;50.074;19.920;2023-07-29T02:51:50;3.97;;;3.78;;
19919;SDS011;10122;50.074;19.920;2023-07-29T02:54:16;3.83;;;3.63;;
19919;SDS011;10122;50.074;19.920;2023-07-29T02:56:41;4.20;;;4.00;;
19919;SDS011;10122;50.074;19.920;2023-07-29T02:59:07;3.85;;;3.65;;
19919;SDS011;10122;50.074;19.920;2023-07-29T03:01:33;4.40;;;4.15;;
19919;SDS011;10122;50.074;19.920;2023-07-29T03:03:59;6.47;;;4.43;;
19919;SDS011;10122;50.074;19.920;2023-07-29T03:06:24;3.80;;;3.60;;
19919;SDS011;10122;50.074;19.920;2023-07-29T03:08:50;3.70;;;3.50;;
19919;SDS011;10122;50.074;19.920;2023-07-29T03:11:16;3.78;;;3.58;;
19919;SDS011;10122;50.074;19.920;2023-07-29T03:13:42;4.47;;;4.18;;
19919;SDS011;10122;50.074;19.920;2023-07-29T03:16:09;3.90;;;3.70;;
19919;SDS011;10122;50.074;19.920;2023-07-29T03:18:35;4.05;;;3.85;;
19919;SDS011;10122;50.074;19.920;2023-07-29T03:21:01;4.07;;;3.88;;
19919;SDS011;10122;50.074;19.920;2023-07-29T03:23:28;4.00;;;3.80;;
19919;SDS011;10122;50.074;19.920;2023-07-29T03:25:55;4.10;;;3.90;;
19919;SDS011;10122;50.074;19.920;2023-07-29T03:28:23;4.00;;;3.80;;
19919;SDS011;10122;50.074;19.920;2023-07-29T03:30:50;4.20;;;4.00;;
19919;SDS011;10122;50.074;19.920;2023-07-29T03:33:16;10.60;;;4.28;;
19919;SDS011;10122;50.074;19.920;2023-07-29T03:35:41;4.30;;;4.00;;
19919;SDS011;10122;50.074;19.920;2023-07-29T03:38:09;3.83;;;3.63;;
19919;SDS011;10122;50.074;19.920;2023-07-29T03:40:36;4.13;;;3.92;;
19919;SDS011;10122;50.074;19.920;2023-07-29T03:43:03;4.10;;;3.90;;
19919;SDS011;10122;50.074;19.920;2023-07-29T03:45:29;4.47;;;4.10;;
19919;SDS011;10122;50.074;19.920;2023-07-29T03:47:55;3.80;;;3.60;;
19919;SDS011;10122;50.074;19.920;2023-07-29T03:50:21;4.03;;;3.83;;
19919;SDS011;10122;50.074;19.920;2023-07-29T03:52:46;4.25;;;4.05;;
19919;SDS011;10122;50.074;19.920;2023-07-29T03:55:12;4.15;;;3.95;;
19919;SDS011;10122;50.074;19.920;2023-07-29T03:57:38;4.10;;;3.90;;
19919;SDS011;10122;50.074;19.920;2023-07-29T04:00:04;4.05;;;3.80;;
19919;SDS011;10122;50.074;19.920;2023-07-29T04:02:31;3.92;;;3.72;;
19919;SDS011;10122;50.074;19.920;2023-07-29T04:04:56;4.00;;;3.80;;
19919;SDS011;10122;50.074;19.920;2023-07-29T04:07:22;3.83;;;3.63;;
19919;SDS011;10122;50.074;19.920;2023-07-29T04:09:48;4.75;;;4.35;;
19919;SDS011;10122;50.074;19.920;2023-07-29T04:12:14;4.05;;;3.85;;
19919;SDS011;10122;50.074;19.920;2023-07-29T04:14:40;4.50;;;4.20;;
19919;SDS011;10122;50.074;19.920;2023-07-29T04:17:06;4.15;;;3.95;;
19919;SDS011;10122;50.074;19.920;2023-07-29T04:19:32;3.90;;;3.70;;
19919;SDS011;10122;50.074;19.920;2023-07-29T04:21:58;4.03;;;3.83;;
19919;SDS011;10122;50.074;19.920;2023-07-29T04:24:24;4.07;;;3.88;;
19919;SDS011;10122;50.074;19.920;2023-07-29T04:26:50;4.35;;;3.97;;
19919;SDS011;10122;50.074;19.920;2023-07-29T04:29:16;4.32;;;4.05;;
19919;SDS011;10122;50.074;19.920;2023-07-29T04:31:42;3.90;;;3.70;;
19919;SDS011;10122;50.074;19.920;2023-07-29T04:34:07;4.20;;;4.00;;
19919;SDS011;10122;50.074;19.920;2023-07-29T04:36:34;4.82;;;4.40;;
19919;SDS011;10122;50.074;19.920;2023-07-29T04:39:00;4.30;;;4.10;;
19919;SDS011;10122;50.074;19.920;2023-07-29T04:41:25;4.32;;;4.05;;
19919;SDS011;10122;50.074;19.920;2023-07-29T04:43:51;4.53;;;4.22;;
19919;SDS011;10122;50.074;19.920;2023-07-29T04:46:17;4.05;;;3.85;;
19919;SDS011;10122;50.074;19.920;2023-07-29T04:48:43;3.72;;;3.53;;
19919;SDS011;10122;50.074;19.920;2023-07-29T04:51:09;4.55;;;4.28;;
19919;SDS011;10122;50.074;19.920;2023-07-29T04:53:34;3.90;;;3.70;;
19919;SDS011;10122;50.074;19.920;2023-07-29T04:56:01;4.00;;;3.80;;
19919;SDS011;10122;50.074;19.920;2023-07-29T04:58:27;4.10;;;3.90;;
19919;SDS011;10122;50.074;19.920;2023-07-29T05:00:54;3.85;;;3.65;;
19919;SDS011;10122;50.074;19.920;2023-07-29T05:03:21;4.43;;;4.13;;
19919;SDS011;10122;50.074;19.920;2023-07-29T05:05:46;3.90;;;3.70;;
19919;SDS011;10122;50.074;19.920;2023-07-29T05:08:12;4.70;;;4.40;;
19919;SDS011;10122;50.074;19.920;2023-07-29T05:10:38;4.03;;;3.83;;
19919;SDS011;10122;50.074;19.920;2023-07-29T05:13:03;4.10;;;3.90;;
19919;SDS011;10122;50.074;19.920;2023-07-29T05:15:29;3.95;;;3.75;;
19919;SDS011;10122;50.074;19.920;2023-07-29T05:17:55;3.95;;;3.75;;
19919;SDS011;10122;50.074;19.920;2023-07-29T05:20:21;3.80;;;3.60;;
19919;SDS011;10122;50.074;19.920;2023-07-29T05:22:47;3.90;;;3.70;;
19919;SDS011;10122;50.074;19.920;2023-07-29T05:25:12;4.35;;;4.07;;
19919;SDS011;10122;50.074;19.920;2023-07-29T05:27:38;4.15;;;3.85;;
19919;SDS011;10122;50.074;19.920;2023-07-29T05:30:04;4.05;;;3.85;;
19919;SDS011;10122;50.074;19.920;2023-07-29T05:32:31;3.85;;;3.65;;
19919;SDS011;10122;50.074;19.920;2023-07-29T05:34:57;4.50;;;4.20;;
19919;SDS011;10122;50.074;19.920;2023-07-29T05:37:23;4.00;;;3.80;;
19919;SDS011;10122;50.074;19.920;2023-07-29T05:39:48;3.83;;;3.63;;
19919;SDS011;10122;50.074;19.920;2023-07-29T05:42:14;3.80;;;3.60;;
19919;SDS011;10122;50.074;19.920;2023-07-29T05:44:40;4.00;;;3.80;;
19919;SDS011;10122;50.074;19.920;2023-07-29T05:47:05;4.65;;;4.25;;
19919;SDS011;10122;50.074;19.920;2023-07-29T05:49:31;4.38;;;4.05;;
19919;SDS011;10122;50.074;19.920;2023-07-29T05:51:57;4.03;;;3.72;;
19919;SDS011;10122;50.074;19.920;2023-07-29T05:54:23;4.00;;;3.80;;
19919;SDS011;10122;50.074;19.920;2023-07-29T05:56:48;4.28;;;4.00;;
19919;SDS011;10122;50.074;19.920;2023-07-29T05:59:14;4.00;;;3.80;;
19919;SDS011;10122;50.074;19.920;2023-07-29T06:01:40;4.00;;;3.80;;
19919;SDS011;10122;50.074;19.920;2023-07-29T06:04:05;3.90;;;3.70;;
19919;SDS011;10122;50.074;19.920;2023-07-29T06:06:31;4.00;;;3.80;;
19919;SDS011;10122;50.074;19.920;2023-07-29T06:08:57;4.07;;;3.80;;
19919;SDS011;10122;50.074;19.920;2023-07-29T06:11:23;4.13;;;3.92;;
19919;SDS011;10122;50.074;19.920;2023-07-29T06:13:48;3.90;;;3.70;;
19919;SDS011;10122;50.074;19.920;2023-07-29T06:16:14;3.80;;;3.60;;
19919;SDS011;10122;50.074;19.920;2023-07-29T06:18:40;4.35;;;4.05;;
19919;SDS011;10122;50.074;19.920;2023-07-29T06:21:05;3.80;;;3.60;;
19919;SDS011;10122;50.074;19.920;2023-07-29T06:23:33;3.80;;;3.60;;
19919;SDS011;10122;50.074;19.920;2023-07-29T06:25:59;3.50;;;3.30;;
19919;SDS011;10122;50.074;19.920;2023-07-29T06:28:25;3.90;;;3.70;;
19919;SDS011;10122;50.074;19.920;2023-07-29T06:30:51;3.70;;;3.50;;
19919;SDS011;10122;50.074;19.920;2023-07-29T06:33:17;4.30;;;4.03;;
19919;SDS011;10122;50.074;19.920;2023-07-29T06:35:43;3.63;;;3.42;;
19919;SDS011;10122;50.074;19.920;2023-07-29T06:38:09;3.78;;;3.58;;
19919;SDS011;10122;50.074;19.920;2023-07-29T06:40:34;3.80;;;3.60;;
19919;SDS011;10122;50.074;19.920;2023-07-29T06:43:00;4.05;;;3.85;;
19919;SDS011;10122;50.074;19.920;2023-07-29T06:45:26;4.13;;;3.92;;
19919;SDS011;10122;50.074;19.920;2023-07-29T06:47:52;4.47;;;4.18;;
19919;SDS011;10122;50.074;19.920;2023-07-29T06:50:17;4.25;;;4.00;;
19919;SDS011;10122;50.074;19.920;2023-07-29T06:52:43;3.85;;;3.65;;
19919;SDS011;10122;50.074;19.920;2023-07-29T06:55:09;3.88;;;3.67;;
19919;SDS011;10122;50.074;19.920;2023-07-29T06:57:35;3.80;;;3.60;;
19919;SDS011;10122;50.074;19.920;2023-07-29T07:00:01;3.67;;;3.47;;
19919;SDS011;10122;50.074;19.920;2023-07-29T07:02:28;3.30;;;3.20;;
19919;SDS011;10122;50.074;19.920;2023-07-29T07:04:54;3.90;;;3.70;;
19919;SDS011;10122;50.074;19.920;2023-07-29T07:07:19;4.43;;;4.13;;
19919;SDS011;10122;50.074;19.920;2023-07-29T07:09:45;4.00;;;3.80;;
19919;SDS011;10122;50.074;19.920;2023-07-29T07:12:11;4.20;;;4.00;;
19919;SDS011;10122;50.074;19.920;2023-07-29T07:14:37;3.83;;;3.63;;
19919;SDS011;10122;50.074;19.920;2023-07-29T07:17:03;4.00;;;3.80;;
19919;SDS011;10122;50.074;19.920;2023-07-29T07:19:29;4.18;;;3.97;;
19919;SDS011;10122;50.074;19.920;2023-07-29T07:21:54;4.05;;;3.85;;
19919;SDS011;10122;50.074;19.920;2023-07-29T07:24:20;4.70;;;4.40;;
19919;SDS011;10122;50.074;19.920;2023-07-29T07:26:46;4.10;;;3.90;;
19919;SDS011;10122;50.074;19.920;2023-07-29T07:29:11;4.00;;;3.80;;
19919;SDS011;10122;50.074;19.920;2023-07-29T07:31:37;4.30;;;4.10;;
19919;SDS011;10122;50.074;19.920;2023-07-29T07:34:02;3.95;;;3.75;;
19919;SDS011;10122;50.074;19.920;2023-07-29T07:36:29;4.05;;;3.85;;
19919;SDS011;10122;50.074;19.920;2023-07-29T07:38:55;4.07;;;3.88;;
19919;SDS011;10122;50.074;19.920;2023-07-29T07:41:21;4.07;;;3.88;;
19919;SDS011;10122;50.074;19.920;2023-07-29T07:43:47;4.10;;;3.90;;
19919;SDS011;10122;50.074;19.920;2023-07-29T07:46:12;4.43;;;4.20;;
19919;SDS011;10122;50.074;19.920;2023-07-29T07:48:38;4.85;;;4.55;;
19919;SDS011;10122;50.074;19.920;2023-07-29T07:51:13;4.25;;;4.05;;
19919;SDS011;10122;50.074;19.920;2023-07-29T07:53:39;4.20;;;3.88;;
19919;SDS011;10122;50.074;19.920;2023-07-29T07:56:05;4.20;;;4.00;;
19919;SDS011;10122;50.074;19.920;2023-07-29T07:58:32;3.83;;;3.63;;
19919;SDS011;10122;50.074;19.920;2023-07-29T08:01:04;3.92;;;3.72;;
19919;SDS011;10122;50.074;19.920;2023-07-29T08:03:31;4.40;;;4.20;;
19919;SDS011;10122;50.074;19.920;2023-07-29T08:05:57;4.00;;;3.80;;
19919;SDS011;10122;50.074;19.920;2023-07-29T08:08:23;4.15;;;3.95;;
19919;SDS011;10122;50.074;19.920;2023-07-29T08:10:49;4.20;;;4.00;;
19919;SDS011;10122;50.074;19.920;2023-07-29T08:13:14;4.38;;;4.05;;
19919;SDS011;10122;50.074;19.920;2023-07-29T08:15:40;4.40;;;4.20;;
19919;SDS011;10122;50.074;19.920;2023-07-29T08:18:06;4.25;;;4.05;;
19919;SDS011;10122;50.074;19.920;2023-07-29T08:20:32;4.28;;;4.07;;
19919;SDS011;10122;50.074;19.920;2023-07-29T08:22:58;4.15;;;3.95;;
19919;SDS011;10122;50.074;19.920;2023-07-29T08:25:23;4.25;;;3.95;;
19919;SDS011;10122;50.074;19.920;2023-07-29T08:27:49;8.00;;;4.43;;
19919;SDS011;10122;50.074;19.920;2023-07-29T08:30:24;4.30;;;4.10;;
19919;SDS011;10122;50.074;19.920;2023-07-29T08:32:49;4.43;;;4.15;;
19919;SDS011;10122;50.074;19.920;2023-07-29T08:35:15;4.43;;;4.22;;
19919;SDS011;10122;50.074;19.920;2023-07-29T08:37:41;4.45;;;4.25;;
19919;SDS011;10122;50.074;19.920;2023-07-29T08:40:07;4.43;;;4.22;;
19919;SDS011;10122;50.074;19.920;2023-07-29T08:42:33;4.40;;;4.20;;
19919;SDS011;10122;50.074;19.920;2023-07-29T08:45:01;4.28;;;4.07;;
19919;SDS011;10122;50.074;19.920;2023-07-29T08:47:33;4.10;;;3.90;;
19919;SDS011;10122;50.074;19.920;2023-07-29T08:49:59;4.00;;;3.80;;
19919;SDS011;10122;50.074;19.920;2023-07-29T08:52:26;4.30;;;4.10;;
19919;SDS011;10122;50.074;19.920;2023-07-29T08:54:52;4.20;;;4.00;;
19919;SDS011;10122;50.074;19.920;2023-07-29T08:57:18;4.20;;;4.00;;
19919;SDS011;10122;50.074;19.920;2023-07-29T08:59:45;4.18;;;3.97;;
19919;SDS011;10122;50.074;19.920;2023-07-29T09:02:11;4.10;;;3.90;;
19919;SDS011;10122;50.074;19.920;2023-07-29T09:04:37;4.35;;;4.15;;
19919;SDS011;10122;50.074;19.920;2023-07-29T09:07:03;4.30;;;4.10;;
19919;SDS011;10122;50.074;19.920;2023-07-29T09:09:30;4.40;;;4.20;;
19919;SDS011;10122;50.074;19.920;2023-07-29T09:11:56;4.70;;;4.40;;
19919;SDS011;10122;50.074;19.920;2023-07-29T09:14:23;4.40;;;4.10;;
19919;SDS011;10122;50.074;19.920;2023-07-29T09:16:49;4.30;;;4.10;;
19919;SDS011;10122;50.074;19.920;2023-07-29T09:19:15;4.20;;;4.00;;
19919;SDS011;10122;50.074;19.920;2023-07-29T09:21:41;4.20;;;4.00;;
19919;SDS011;10122;50.074;19.920;2023-07-29T09:24:07;4.10;;;3.90;;
19919;SDS011;10122;50.074;19.920;2023-07-29T09:26:33;4.10;;;3.90;;
19919;SDS011;10122;50.074;19.920;2023-07-29T09:29:00;4.38;;;4.10;;
19919;SDS011;10122;50.074;19.920;2023-07-29T09:31:26;4.30;;;4.10;;
19919;SDS011;10122;50.074;19.920;2023-07-29T09:33:59;4.20;;;4.00;;
19919;SDS011;10122;50.074;19.920;2023-07-29T09:36:29;4.20;;;4.00;;
19919;SDS011;10122;50.074;19.920;2023-07-29T09:38:56;4.22;;;4.03;;
19919;SDS011;10122;50.074;19.920;2023-07-29T09:41:25;4.07;;;3.88;;
19919;SDS011;10122;50.074;19.920;2023-07-29T09:43:59;4.30;;;4.10;;
19919;SDS011;10122;50.074;19.920;2023-07-29T09:46:35;3.95;;;3.75;;
19919;SDS011;10122;50.074;19.920;2023-07-29T09:49:02;3.90;;;3.70;;
19919;SDS011;10122;50.074;19.920;2023-07-29T09:51:29;4.03;;;3.83;;
19919;SDS011;10122;50.074;19.920;2023-07-29T09:53:55;4.03;;;3.83;;
19919;SDS011;10122;50.074;19.920;2023-07-29T09:56:24;4.38;;;4.18;;
19919;SDS011;10122;50.074;19.920;2023-07-29T09:58:51;4.10;;;3.90;;
19919;SDS011;10122;50.074;19.920;2023-07-29T10:01:18;4.32;;;4.03;;
19919;SDS011;10122;50.074;19.920;2023-07-29T10:03:44;3.97;;;3.78;;
19919;SDS011;10122;50.074;19.920;2023-07-29T10:06:11;4.30;;;4.00;;
19919;SDS011;10122;50.074;19.920;2023-07-29T10:08:37;4.57;;;4.28;;
19919;SDS011;10122;50.074;19.920;2023-07-29T10:11:05;4.20;;;4.00;;
19919;SDS011;10122;50.074;19.920;2023-07-29T10:13:32;3.72;;;3.53;;
19919;SDS011;10122;50.074;19.920;2023-07-29T10:15:59;4.22;;;4.03;;
19919;SDS011;10122;50.074;19.920;2023-07-29T10:18:27;4.60;;;4.30;;
19919;SDS011;10122;50.074;19.920;2023-07-29T10:20:53;4.20;;;4.00;;
19919;SDS011;10122;50.074;19.920;2023-07-29T10:23:21;4.00;;;3.80;;
19919;SDS011;10122;50.074;19.920;2023-07-29T10:25:50;4.05;;;3.75;;
19919;SDS011;10122;50.074;19.920;2023-07-29T10:28:21;4.20;;;4.00;;
19919;SDS011;10122;50.074;19.920;2023-07-29T10:30:51;4.00;;;3.80;;
19919;SDS011;10122;50.074;19.920;2023-07-29T10:33:17;4.28;;;4.07;;
19919;SDS011;10122;50.074;19.920;2023-07-29T10:35:43;3.92;;;3.72;;
19919;SDS011;10122;50.074;19.920;2023-07-29T10:38:09;3.70;;;3.50;;
19919;SDS011;10122;50.074;19.920;2023-07-29T10:40:51;3.72;;;3.53;;
19919;SDS011;10122;50.074;19.920;2023-07-29T10:43:26;3.83;;;3.63;;
19919;SDS011;10122;50.074;19.920;2023-07-29T10:48:43;3.90;;;3.70;;
19919;SDS011;10122;50.074;19.920;2023-07-29T10:54:13;3.70;;;3.50;;
19919;SDS011;10122;50.074;19.920;2023-07-29T10:56:42;4.10;;;3.83;;
19919;SDS011;10122;50.074;19.920;2023-07-29T11:01:38;3.70;;;3.50;;
19919;SDS011;10122;50.074;19.920;2023-07-29T11:20:07;3.78;;;3.58;;
19919;SDS011;10122;50.074;19.920;2023-07-29T11:22:33;4.00;;;3.80;;
19919;SDS011;10122;50.074;19.920;2023-07-29T11:25:00;3.97;;;3.78;;
19919;SDS011;10122;50.074;19.920;2023-07-29T11:27:26;3.58;;;3.38;;
19919;SDS011;10122;50.074;19.920;2023-07-29T11:30:02;4.00;;;3.80;;
19919;SDS011;10122;50.074;19.920;2023-07-29T11:32:33;4.00;;;3.80;;
19919;SDS011;10122;50.074;19.920;2023-07-29T11:35:07;4.00;;;3.70;;
19919;SDS011;10122;50.074;19.920;2023-07-29T11:37:35;3.95;;;3.75;;
19919;SDS011;10122;50.074;19.920;2023-07-29T11:40:01;3.80;;;3.60;;
19919;SDS011;10122;50.074;19.920;2023-07-29T11:42:27;3.90;;;3.70;;
19919;SDS011;10122;50.074;19.920;2023-07-29T11:44:56;3.83;;;3.63;;
19919;SDS011;10122;50.074;19.920;2023-07-29T11:47:23;3.92;;;3.72;;
19919;SDS011;10122;50.074;19.920;2023-07-29T11:49:49;3.90;;;3.70;;
19919;SDS011;10122;50.074;19.920;2023-07-29T11:52:14;3.90;;;3.70;;
19919;SDS011;10122;50.074;19.920;2023-07-29T11:54:44;3.80;;;3.60;;
19919;SDS011;10122;50.074;19.920;2023-07-29T11:57:14;3.90;;;3.70;;
19919;SDS011;10122;50.074;19.920;2023-07-29T11:59:43;3.70;;;3.50;;
19919;SDS011;10122;50.074;19.920;2023-07-29T12:02:15;3.90;;;3.70;;
19919;SDS011;10122;50.074;19.920;2023-07-29T12:04:43;4.40;;;4.20;;
19919;SDS011;10122;50.074;19.920;2023-07-29T12:07:11;4.00;;;3.80;;
19919;SDS011;10122;50.074;19.920;2023-07-29T12:09:38;3.88;;;3.67;;
19919;SDS011;10122;50.074;19.920;2023-07-29T12:12:05;4.00;;;3.80;;
19919;SDS011;10122;50.074;19.920;2023-07-29T12:14:32;4.28;;;4.07;;
19919;SDS011;10122;50.074;19.920;2023-07-29T12:17:02;3.92;;;3.72;;
19919;SDS011;10122;50.074;19.920;2023-07-29T12:19:35;3.97;;;3.78;;
19919;SDS011;10122;50.074;19.920;2023-07-29T12:22:03;3.80;;;3.50;;
19919;SDS011;10122;50.074;19.920;2023-07-29T12:24:30;3.90;;;3.70;;
19919;SDS011;10122;50.074;19.920;2023-07-29T12:26:57;3.80;;;3.60;;
19919;SDS011;10122;50.074;19.920;2023-07-29T12:29:23;3.97;;;3.70;;
19919;SDS011;10122;50.074;19.920;2023-07-29T12:31:49;3.75;;;3.55;;
19919;SDS011;10122;50.074;19.920;2023-07-29T12:34:29;3.97;;;3.78;;
19919;SDS011;10122;50.074;19.920;2023-07-29T12:36:56;3.90;;;3.70;;
19919;SDS011;10122;50.074;19.920;2023-07-29T12:41:52;5.45;;;5.10;;
19919;SDS011;10122;50.074;19.920;2023-07-29T12:44:20;7.35;;;5.90;;
19919;SDS011;10122;50.074;19.920;2023-07-29T12:46:47;5.93;;;5.35;;
19919;SDS011;10122;50.074;19.920;2023-07-29T12:49:13;9.25;;;6.85;;
19919;SDS011;10122;50.074;19.920;2023-07-29T12:51:38;9.60;;;8.25;;
19919;SDS011;10122;50.074;19.920;2023-07-29T12:54:04;8.50;;;7.65;;
19919;SDS011;10122;50.074;19.920;2023-07-29T12:56:30;13.90;;;9.88;;
19919;SDS011;10122;50.074;19.920;2023-07-29T12:58:57;13.73;;;8.95;;
19919;SDS011;10122;50.074;19.920;2023-07-29T13:01:24;10.20;;;8.85;;
19919;SDS011;10122;50.074;19.920;2023-07-29T13:03:50;14.07;;;9.05;;
19919;SDS011;10122;50.074;19.920;2023-07-29T13:06:16;17.02;;;8.32;;
19919;SDS011;10122;50.074;19.920;2023-07-29T13:08:42;9.77;;;8.50;;
19919;SDS011;10122;50.074;19.920;2023-07-29T13:11:09;5.50;;;5.00;;
19919;SDS011;10122;50.074;19.920;2023-07-29T13:13:34;6.95;;;6.07;;
19919;SDS011;10122;50.074;19.920;2023-07-29T13:16:00;5.07;;;4.78;;
19919;SDS011;10122;50.074;19.920;2023-07-29T13:18:26;5.13;;;4.82;;
19919;SDS011;10122;50.074;19.920;2023-07-29T13:20:52;4.13;;;3.92;;
19919;SDS011;10122;50.074;19.920;2023-07-29T13:23:19;4.43;;;4.18;;
19919;SDS011;10122;50.074;19.920;2023-07-29T13:25:45;4.05;;;3.85;;
19919;SDS011;10122;50.074;19.920;2023-07-29T13:28:11;4.10;;;3.90;;
19919;SDS011;10122;50.074;19.920;2023-07-29T13:30:40;3.80;;;3.60;;
19919;SDS011;10122;50.074;19.920;2023-07-29T13:33:08;4.60;;;4.25;;
19919;SDS011;10122;50.074;19.920;2023-07-29T13:35:34;4.60;;;4.30;;
19919;SDS011;10122;50.074;19.920;2023-07-29T13:38:00;4.30;;;4.00;;
19919;SDS011;10122;50.074;19.920;2023-07-29T13:40:26;4.20;;;4.00;;
19919;SDS011;10122;50.074;19.920;2023-07-29T13:42:52;4.15;;;3.95;;
19919;SDS011;10122;50.074;19.920;2023-07-29T13:45:18;4.00;;;3.80;;
19919;SDS011;10122;50.074;19.920;2023-07-29T13:47:44;4.35;;;4.13;;
19919;SDS011;10122;50.074;19.920;2023-07-29T13:50:10;4.25;;;4.05;;
19919;SDS011;10122;50.074;19.920;2023-07-29T13:52:37;4.32;;;4.07;;
19919;SDS011;10122;50.074;19.920;2023-07-29T13:55:06;4.13;;;3.83;;
19919;SDS011;10122;50.074;19.920;2023-07-29T13:57:32;4.03;;;3.83;;
19919;SDS011;10122;50.074;19.920;2023-07-29T13:59:58;4.07;;;3.88;;
19919;SDS011;10122;50.074;19.920;2023-07-29T14:02:24;4.10;;;3.90;;
19919;SDS011;10122;50.074;19.920;2023-07-29T14:04:53;4.10;;;3.80;;
19919;SDS011;10122;50.074;19.920;2023-07-29T14:07:25;4.38;;;4.10;;
19919;SDS011;10122;50.074;19.920;2023-07-29T14:09:51;3.80;;;3.60;;
19919;SDS011;10122;50.074;19.920;2023-07-29T14:12:16;4.25;;;3.95;;
19919;SDS011;10122;50.074;19.920;2023-07-29T14:14:42;4.20;;;4.00;;
19919;SDS011;10122;50.074;19.920;2023-07-29T14:17:08;3.90;;;3.70;;
19919;SDS011;10122;50.074;19.920;2023-07-29T14:19:34;3.80;;;3.60;;
19919;SDS011;10122;50.074;19.920;2023-07-29T14:22:01;4.03;;;3.83;;
19919;SDS011;10122;50.074;19.920;2023-07-29T14:24:26;3.97;;;3.78;;
19919;SDS011;10122;50.074;19.920;2023-07-29T14:26:52;3.90;;;3.70;;
19919;SDS011;10122;50.074;19.920;2023-07-29T14:29:18;4.07;;;3.88;;
19919;SDS011;10122;50.074;19.920;2023-07-29T14:31:43;3.80;;;3.60;;
19919;SDS011;10122;50.074;19.920;2023-07-29T14:34:09;3.72;;;3.53;;
19919;SDS011;10122;50.074;19.920;2023-07-29T14:36:35;4.00;;;3.70;;
19919;SDS011;10122;50.074;19.920;2023-07-29T14:39:01;3.80;;;3.60;;
19919;SDS011;10122;50.074;19.920;2023-07-29T14:41:27;3.70;;;3.50;;
19919;SDS011;10122;50.074;19.920;2023-07-29T14:43:52;3.60;;;3.40;;
19919;SDS011;10122;50.074;19.920;2023-07-29T14:46:18;4.30;;;4.00;;
19919;SDS011;10122;50.074;19.920;2023-07-29T14:48:44;3.72;;;3.53;;
19919;SDS011;10122;50.074;19.920;2023-07-29T14:51:12;3.60;;;3.40;;
19919;SDS011;10122;50.074;19.920;2023-07-29T14:53:37;3.75;;;3.55;;
19919;SDS011;10122;50.074;19.920;2023-07-29T14:56:03;3.60;;;3.40;;
19919;SDS011;10122;50.074;19.920;2023-07-29T14:58:29;3.80;;;3.60;;
19919;SDS011;10122;50.074;19.920;2023-07-29T15:00:55;3.90;;;3.70;;
19919;SDS011;10122;50.074;19.920;2023-07-29T15:03:21;3.90;;;3.60;;